This is the latest recevied weather packets stored in our database for station/object AB2HM. If no packets are shown the sender has not sent any weather packets the latest 10 day(s).
| Time | Temp. | Humidity | Pressure | Rain* | Wind** | Luminosity | Snow |
|---|---|---|---|---|---|---|---|
| 1777325898 | 23.33° C | 35% | 1023.5 hPa | 0 mm | - | - | - |
| 1777324077 | 24.44° C | 33% | 1023.4 hPa | 0 mm | - | - | - |
| 1777322267 | 24.44° C | 34% | 1023.6 hPa | 0 mm | - | - | - |
| 1777320454 | 23.89° C | 34% | 1023.4 hPa | 0 mm | - | - | - |
| 1777318647 | 23.89° C | 35% | 1023.6 hPa | 0 mm | - | - | - |
| 1777316839 | 23.33° C | 36% | 1023.6 hPa | 0 mm | - | - | - |
| 1777315032 | 23.33° C | 35% | 1023.7 hPa | 0 mm | - | - | - |
| 1777313229 | 22.78° C | 38% | 1024 hPa | 0 mm | - | - | - |
| 1777311426 | 22.78° C | 40% | 1024.3 hPa | 0 mm | - | - | - |
| 1777309627 | 21.67° C | 41% | 1024.5 hPa | 0 mm | - | - | - |
| 1777307812 | 21.11° C | 43% | 1024.6 hPa | 0 mm | - | - | - |
| 1777306014 | 20° C | 46% | 1024.8 hPa | 0 mm | - | - | - |
| 1777304207 | 19.44° C | 52% | 1025.1 hPa | 0 mm | - | - | - |
| 1777302403 | 18.89° C | 55% | 1025.2 hPa | 0 mm | - | - | - |
| 1777300600 | 17.22° C | 62% | 1025.4 hPa | 0 mm | - | - | - |
| 1777298797 | 15.56° C | 67% | 1025.5 hPa | 0 mm | - | - | - |
| 1777296992 | 14.44° C | 72% | 1025.2 hPa | 0 mm | - | - | - |
| 1777295188 | 12.22° C | 84% | 1025 hPa | 0 mm | - | - | - |
| 1777293366 | 10° C | 95% | 1024.7 hPa | 0 mm | - | - | - |
| 1777291566 | 8.33° C | 96% | 1024.6 hPa | 0 mm | - | - | - |
| 1777289765 | 6.11° C | 96% | 1024.4 hPa | 0 mm | - | - | - |
| 1777287947 | 5° C | 96% | 1024.1 hPa | 0 mm | - | - | - |
| 1777286145 | 5° C | 96% | 1023.8 hPa | 0 mm | - | - | - |
| 1777284343 | 5° C | 95% | 1023.4 hPa | 0 mm | - | - | - |
| 1777282520 | 5.56° C | 95% | 1023.5 hPa | 0 mm | - | - | - |
* Rain latest hour (hover to see other rain measurements)
** Current wind speed in m/s (hover to see current wind gust speed)